Time;durP1;ratioP1;P1;durP2;ratioP2;P2;SDS_P1;SDS_P2;PMS_P1;PMS_P2;Temp;Humidity;BMP_temperature;BMP_pressure;BME280_temperature;BME280_humidity;BME280_pressure;Samples;Min_cycle;Max_cycle;Signal;HPM_P1;HPM_P2
2022/04/21 00:01:19;;;;;;;3.90;3.50;;;;;;;;;;5095668;28;20717;-70
2022/04/21 00:03:48;;;;;;;5.03;4.53;;;;;;;;;;5096018;28;20506;-70
2022/04/21 00:06:16;;;;;;;3.92;3.47;;;;;;;;;;5095568;28;20190;-70
2022/04/21 00:08:43;;;;;;;7.88;4.13;;;;;;;;;;5095681;28;20287;-70
2022/04/21 00:11:11;;;;;;;5.30;3.58;;;;;;;;;;5095718;28;20201;-70
2022/04/21 00:13:38;;;;;;;3.72;3.42;;;;;;;;;;5094695;28;20292;-70
2022/04/21 00:16:06;;;;;;;4.93;3.83;;;;;;;;;;5095795;28;20541;-70
2022/04/21 00:18:33;;;;;;;3.40;3.10;;;;;;;;;;5095203;28;20204;-71
2022/04/21 00:21:02;;;;;;;5.03;3.70;;;;;;;;;;5095181;28;20201;-71
2022/04/21 00:23:29;;;;;;;4.00;3.60;;;;;;;;;;5095788;28;20254;-71
2022/04/21 00:25:58;;;;;;;4.80;3.60;;;;;;;;;;5095597;28;20216;-71
2022/04/21 00:28:25;;;;;;;6.30;3.55;;;;;;;;;;5095338;28;20236;-71
2022/04/21 00:30:53;;;;;;;3.90;3.20;;;;;;;;;;5095423;28;20283;-71
2022/04/21 00:33:20;;;;;;;7.35;3.65;;;;;;;;;;5095240;28;20200;-71
2022/04/21 00:35:47;;;;;;;3.53;3.22;;;;;;;;;;5095339;28;20623;-71
2022/04/21 00:38:16;;;;;;;6.15;3.20;;;;;;;;;;5095141;28;20276;-71
2022/04/21 00:40:43;;;;;;;4.10;3.80;;;;;;;;;;5095263;28;20197;-71
2022/04/21 00:43:10;;;;;;;3.58;3.28;;;;;;;;;;5094819;28;20236;-71
2022/04/21 00:45:37;;;;;;;6.63;3.30;;;;;;;;;;5094695;28;20294;-71
2022/04/21 00:48:06;;;;;;;3.30;3.05;;;;;;;;;;5095341;28;20192;-70
2022/04/21 00:50:35;;;;;;;4.40;3.30;;;;;;;;;;5094892;28;20194;-71
2022/04/21 00:53:03;;;;;;;3.25;3.05;;;;;;;;;;5094931;28;20199;-71
2022/04/21 00:55:32;;;;;;;4.63;3.30;;;;;;;;;;5094412;28;20294;-71
2022/04/21 00:58:01;;;;;;;8.60;3.50;;;;;;;;;;5094810;28;20196;-70
2022/04/21 01:00:28;;;;;;;5.55;3.90;;;;;;;;;;5094342;28;20287;-71
2022/04/21 01:02:54;;;;;;;4.70;3.00;;;;;;;;;;5094795;28;20255;-70
2022/04/21 01:05:30;;;;;;;5.78;3.95;;;;;;;;;;5094554;28;20372;-70
2022/04/21 01:07:58;;;;;;;4.72;3.78;;;;;;;;;;5094644;28;20527;-70
2022/04/21 01:10:26;;;;;;;3.65;3.33;;;;;;;;;;5094191;28;20294;-71
2022/04/21 01:12:55;;;;;;;6.47;3.85;;;;;;;;;;5094659;28;20539;-70
2022/04/21 01:15:22;;;;;;;5.35;2.95;;;;;;;;;;5094033;28;20662;-70
2022/04/21 01:17:50;;;;;;;3.40;3.00;;;;;;;;;;5094493;28;20605;-70
2022/04/21 01:20:21;;;;;;;3.90;3.60;;;;;;;;;;5094271;28;20202;-71
2022/04/21 01:22:49;;;;;;;5.80;3.28;;;;;;;;;;5094380;28;20567;-71
2022/04/21 01:25:16;;;;;;;3.42;3.10;;;;;;;;;;5093264;28;20220;-71
2022/04/21 01:27:43;;;;;;;4.60;3.50;;;;;;;;;;5094496;28;20200;-71
2022/04/21 01:30:11;;;;;;;3.90;3.50;;;;;;;;;;5093763;28;20196;-71
2022/04/21 01:32:39;;;;;;;4.50;4.07;;;;;;;;;;5093813;28;20204;-71
2022/04/21 01:35:06;;;;;;;4.82;2.60;;;;;;;;;;5093727;28;20226;-71
2022/04/21 01:43:06;;;;;;;5.03;3.60;;;;;;;;;;5094042;28;20668;-70
2022/04/21 01:45:33;;;;;;;4.47;3.22;;;;;;;;;;5093672;28;20243;-70
2022/04/21 01:48:00;;;;;;;3.80;3.20;;;;;;;;;;5094394;28;20182;-70
2022/04/21 01:50:28;;;;;;;3.85;3.50;;;;;;;;;;5093958;28;20193;-70
2022/04/21 01:52:58;;;;;;;6.90;3.45;;;;;;;;;;5094022;28;20200;-70
2022/04/21 01:55:25;;;;;;;3.90;3.60;;;;;;;;;;5093859;28;20292;-70
2022/04/21 01:57:52;;;;;;;3.53;3.30;;;;;;;;;;5093653;28;20206;-70
2022/04/21 02:00:20;;;;;;;3.75;3.35;;;;;;;;;;5093442;28;20194;-70
2022/04/21 02:02:47;;;;;;;3.47;3.17;;;;;;;;;;5094468;28;20197;-70
2022/04/21 02:05:14;;;;;;;4.40;3.08;;;;;;;;;;5093667;28;20578;-70
2022/04/21 02:07:43;;;;;;;4.05;3.58;;;;;;;;;;5093791;28;20280;-69
2022/04/21 02:10:12;;;;;;;4.07;3.67;;;;;;;;;;5093600;28;20634;-70
2022/04/21 02:12:39;;;;;;;4.15;3.63;;;;;;;;;;5093911;28;20230;-70
2022/04/21 02:15:07;;;;;;;3.58;3.25;;;;;;;;;;5093812;28;20193;-70
2022/04/21 02:17:35;;;;;;;3.83;3.53;;;;;;;;;;5093695;28;20199;-70
2022/04/21 02:20:02;;;;;;;3.53;3.33;;;;;;;;;;5093248;28;20235;-71
2022/04/21 02:22:30;;;;;;;6.10;4.18;;;;;;;;;;5093278;28;20203;-70
2022/04/21 02:24:57;;;;;;;3.08;2.63;;;;;;;;;;5093659;28;20752;-70
2022/04/21 02:27:25;;;;;;;4.22;3.63;;;;;;;;;;5093594;28;20228;-70
2022/04/21 02:29:54;;;;;;;3.60;3.30;;;;;;;;;;5093513;28;20203;-71
2022/04/21 02:32:21;;;;;;;3.67;3.38;;;;;;;;;;5094064;28;20242;-70
2022/04/21 02:34:49;;;;;;;4.45;4.15;;;;;;;;;;5093653;28;20197;-71
2022/04/21 02:37:16;;;;;;;5.07;4.03;;;;;;;;;;5095737;28;20205;-70
2022/04/21 02:39:43;;;;;;;5.07;3.25;;;;;;;;;;5097652;28;20245;-70
2022/04/21 02:42:10;;;;;;;4.47;4.07;;;;;;;;;;5097466;28;20199;-70
2022/04/21 02:44:39;;;;;;;4.45;3.50;;;;;;;;;;5097531;28;20573;-70
2022/04/21 02:47:07;;;;;;;9.52;3.75;;;;;;;;;;5097782;28;20624;-70
2022/04/21 02:49:35;;;;;;;9.05;4.45;;;;;;;;;;5096983;28;20195;-70
2022/04/21 02:52:02;;;;;;;4.28;3.97;;;;;;;;;;5097263;28;20204;-71
2022/04/21 02:57:23;;;;;;;4.68;3.70;;;;;;;;;;5096947;28;20186;-71
2022/04/21 02:59:53;;;;;;;4.40;3.75;;;;;;;;;;5097839;28;20209;-71
2022/04/21 03:02:21;;;;;;;4.18;3.70;;;;;;;;;;5097116;28;20194;-70
2022/04/21 03:04:48;;;;;;;4.70;4.30;;;;;;;;;;5097118;28;20667;-70
2022/04/21 03:07:17;;;;;;;4.88;3.65;;;;;;;;;;5096648;28;20644;-70
2022/04/21 03:09:44;;;;;;;6.85;3.70;;;;;;;;;;5097306;28;20621;-71
2022/04/21 03:12:12;;;;;;;7.18;3.92;;;;;;;;;;5096763;28;20192;-70
2022/04/21 03:14:39;;;;;;;4.65;3.90;;;;;;;;;;5096903;28;20212;-71
2022/04/21 03:17:08;;;;;;;3.65;3.35;;;;;;;;;;5096272;28;20233;-70
2022/04/21 03:19:36;;;;;;;4.68;4.22;;;;;;;;;;5097101;28;20204;-70
2022/04/21 03:24:48;;;;;;;4.45;4.05;;;;;;;;;;5096406;28;20202;-70
2022/04/21 03:27:16;;;;;;;4.68;3.53;;;;;;;;;;5096498;28;20195;-70
2022/04/21 03:29:43;;;;;;;3.95;3.65;;;;;;;;;;5096350;28;20192;-70
2022/04/21 03:32:13;;;;;;;6.10;4.30;;;;;;;;;;5095988;28;20196;-70
2022/04/21 03:34:41;;;;;;;3.55;3.28;;;;;;;;;;5096427;28;20208;-70
2022/04/21 03:37:08;;;;;;;4.25;3.83;;;;;;;;;;5096482;28;20205;-70
2022/04/21 03:39:36;;;;;;;4.57;3.83;;;;;;;;;;5096677;28;20652;-70
2022/04/21 03:42:03;;;;;;;4.88;4.38;;;;;;;;;;5096302;28;20190;-70
2022/04/21 03:44:31;;;;;;;5.25;4.47;;;;;;;;;;5096154;28;20206;-70
2022/04/21 03:46:58;;;;;;;4.00;3.70;;;;;;;;;;5095299;28;20241;-70
2022/04/21 03:49:27;;;;;;;5.00;4.07;;;;;;;;;;5095290;28;20200;-70
2022/04/21 03:51:54;;;;;;;4.15;3.75;;;;;;;;;;5095809;28;20655;-70
2022/04/21 03:54:22;;;;;;;5.05;4.18;;;;;;;;;;5095766;28;20209;-70
2022/04/21 03:56:50;;;;;;;5.13;4.70;;;;;;;;;;5095680;28;20208;-70
2022/04/21 03:59:17;;;;;;;7.40;4.75;;;;;;;;;;5095714;28;20197;-70
2022/04/21 04:01:45;;;;;;;9.20;4.72;;;;;;;;;;5095605;28;20206;-70
2022/04/21 04:04:12;;;;;;;5.97;4.32;;;;;;;;;;5095886;28;20282;-70
2022/04/21 04:12:11;;;;;;;4.57;4.10;;;;;;;;;;5095354;28;20199;-69
2022/04/21 04:14:38;;;;;;;6.10;4.82;;;;;;;;;;5095743;28;20198;-70
2022/04/21 04:17:06;;;;;;;8.23;4.90;;;;;;;;;;5095836;28;20196;-71
2022/04/21 04:19:33;;;;;;;5.55;4.47;;;;;;;;;;5095679;28;20195;-70
2022/04/21 04:22:02;;;;;;;5.60;4.72;;;;;;;;;;5095528;28;20201;-71
2022/04/21 04:24:29;;;;;;;5.78;5.25;;;;;;;;;;5095180;28;20199;-70
2022/04/21 04:26:56;;;;;;;8.75;4.47;;;;;;;;;;5095306;28;20219;-70
2022/04/21 04:29:23;;;;;;;5.40;4.90;;;;;;;;;;5095853;28;20194;-70
2022/04/21 04:31:52;;;;;;;7.50;5.22;;;;;;;;;;5095057;28;20198;-71
2022/04/21 04:34:19;;;;;;;8.30;4.90;;;;;;;;;;5094583;28;20563;-70
2022/04/21 04:36:47;;;;;;;10.63;5.70;;;;;;;;;;5094710;28;20203;-71
2022/04/21 04:39:17;;;;;;;6.38;5.10;;;;;;;;;;5094652;28;20203;-71
2022/04/21 04:44:29;;;;;;;8.48;5.65;;;;;;;;;;5094814;28;20228;-71
2022/04/21 04:46:55;;;;;;;6.13;4.93;;;;;;;;;;5094703;28;20261;-71
2022/04/21 04:49:24;;;;;;;8.88;5.30;;;;;;;;;;5094463;28;20287;-71
2022/04/21 04:51:51;;;;;;;5.38;4.85;;;;;;;;;;5094973;28;20197;-70
2022/04/21 04:54:20;;;;;;;8.27;5.28;;;;;;;;;;5094587;28;20206;-70
2022/04/21 04:56:48;;;;;;;10.32;6.70;;;;;;;;;;5094912;28;20199;-70
2022/04/21 04:59:15;;;;;;;10.48;4.95;;;;;;;;;;5094383;28;20288;-70
2022/04/21 05:01:45;;;;;;;6.78;5.82;;;;;;;;;;5094475;28;20197;-71
2022/04/21 05:04:13;;;;;;;8.77;5.80;;;;;;;;;;5094717;28;20202;-71
2022/04/21 05:06:41;;;;;;;5.32;4.75;;;;;;;;;;5094028;28;20234;-72
2022/04/21 05:09:09;;;;;;;6.35;5.22;;;;;;;;;;5094472;28;20195;-72
2022/04/21 05:11:38;;;;;;;4.85;4.45;;;;;;;;;;5094337;28;20198;-72
2022/04/21 05:14:05;;;;;;;4.78;4.38;;;;;;;;;;5094525;28;20192;-70
2022/04/21 05:16:32;;;;;;;5.85;5.28;;;;;;;;;;5094298;28;20286;-72
2022/04/21 05:19:00;;;;;;;6.43;5.10;;;;;;;;;;5094082;28;20205;-73
2022/04/21 05:21:27;;;;;;;8.20;4.80;;;;;;;;;;5094492;28;20289;-73
2022/04/21 05:23:57;;;;;;;9.35;4.70;;;;;;;;;;5094445;28;20199;-73
2022/04/21 05:26:25;;;;;;;6.82;5.93;;;;;;;;;;5094286;28;20598;-74
2022/04/21 05:28:54;;;;;;;4.90;4.40;;;;;;;;;;5094331;28;20194;-73
2022/04/21 05:31:21;;;;;;;5.95;5.03;;;;;;;;;;5094278;28;20551;-72
2022/04/21 05:33:48;;;;;;;5.18;4.68;;;;;;;;;;5093850;28;20252;-73
2022/04/21 05:36:16;;;;;;;7.50;5.85;;;;;;;;;;5094264;28;20557;-73
2022/04/21 05:38:43;;;;;;;5.60;5.10;;;;;;;;;;5094025;28;20195;-73
2022/04/21 05:41:13;;;;;;;6.43;5.82;;;;;;;;;;5094018;28;20201;-73
2022/04/21 05:43:42;;;;;;;5.43;4.93;;;;;;;;;;5093941;28;20669;-73
2022/04/21 05:46:11;;;;;;;8.45;4.57;;;;;;;;;;5093775;28;20248;-73
2022/04/21 05:48:39;;;;;;;6.93;4.60;;;;;;;;;;5094116;28;20549;-73
2022/04/21 05:51:07;;;;;;;8.23;5.25;;;;;;;;;;5093909;28;20195;-73
2022/04/21 05:53:36;;;;;;;7.78;6.43;;;;;;;;;;5093872;28;20197;-73
2022/04/21 05:56:05;;;;;;;11.18;5.85;;;;;;;;;;5094098;28;20199;-73
2022/04/21 05:58:32;;;;;;;7.85;5.25;;;;;;;;;;5093829;28;20205;-73
2022/04/21 06:00:59;;;;;;;9.82;4.95;;;;;;;;;;5093833;28;20222;-73
2022/04/21 06:03:28;;;;;;;10.70;4.97;;;;;;;;;;5093733;28;20191;-73
2022/04/21 06:05:55;;;;;;;4.90;4.32;;;;;;;;;;5093669;28;20221;-73
2022/04/21 06:08:22;;;;;;;6.03;5.20;;;;;;;;;;5093696;28;20291;-73
2022/04/21 06:10:50;;;;;;;5.50;4.93;;;;;;;;;;5093667;28;20190;-73
2022/04/21 06:13:18;;;;;;;6.55;4.85;;;;;;;;;;5093937;28;20560;-73
2022/04/21 06:15:45;;;;;;;7.30;5.07;;;;;;;;;;5094114;28;20204;-72
2022/04/21 06:18:12;;;;;;;8.68;5.20;;;;;;;;;;5093272;28;20199;-73
2022/04/21 06:20:41;;;;;;;5.50;5.00;;;;;;;;;;5093322;28;20288;-72
2022/04/21 06:23:08;;;;;;;5.60;5.00;;;;;;;;;;5093930;28;20282;-72
2022/04/21 06:25:36;;;;;;;8.68;7.05;;;;;;;;;;5093119;28;20217;-72
2022/04/21 06:28:04;;;;;;;7.47;5.85;;;;;;;;;;5093486;28;20195;-73
2022/04/21 06:30:31;;;;;;;6.28;5.68;;;;;;;;;;5093254;28;20201;-72
2022/04/21 06:32:58;;;;;;;15.25;5.40;;;;;;;;;;5094109;28;20193;-73
2022/04/21 06:35:26;;;;;;;5.60;4.88;;;;;;;;;;5093208;28;20198;-72
2022/04/21 06:37:54;;;;;;;8.90;5.28;;;;;;;;;;5093344;28;20196;-72
2022/04/21 06:40:21;;;;;;;6.05;4.97;;;;;;;;;;5093118;28;20201;-73
2022/04/21 06:42:49;;;;;;;9.50;6.03;;;;;;;;;;5093822;28;20280;-72
2022/04/21 06:48:04;;;;;;;5.20;4.75;;;;;;;;;;5093303;28;20713;-72
2022/04/21 06:50:32;;;;;;;5.93;5.38;;;;;;;;;;5093463;28;20180;-72
2022/04/21 06:53:01;;;;;;;14.32;5.25;;;;;;;;;;5093314;28;20204;-73
2022/04/21 06:55:28;;;;;;;5.28;4.75;;;;;;;;;;5093063;28;20675;-73
2022/04/21 06:57:55;;;;;;;6.80;4.50;;;;;;;;;;5092990;28;20287;-73
2022/04/21 07:00:24;;;;;;;6.75;5.88;;;;;;;;;;5093178;28;20281;-73
2022/04/21 07:02:52;;;;;;;8.48;5.53;;;;;;;;;;5092910;28;20236;-72
2022/04/21 07:05:19;;;;;;;5.55;5.05;;;;;;;;;;5093189;28;20205;-72
2022/04/21 07:07:47;;;;;;;5.13;4.57;;;;;;;;;;5093134;28;20225;-73
2022/04/21 07:10:16;;;;;;;7.03;5.25;;;;;;;;;;5093066;28;20202;-73
2022/04/21 07:12:43;;;;;;;7.18;4.40;;;;;;;;;;5093055;28;20285;-73
2022/04/21 07:15:12;;;;;;;7.28;6.57;;;;;;;;;;5092839;28;20196;-72
2022/04/21 07:17:40;;;;;;;10.05;6.55;;;;;;;;;;5093146;28;20200;-72
2022/04/21 07:20:08;;;;;;;7.72;5.35;;;;;;;;;;5093006;28;20196;-72
2022/04/21 07:22:35;;;;;;;5.88;5.28;;;;;;;;;;5093379;28;20195;-72
2022/04/21 07:25:04;;;;;;;6.38;5.78;;;;;;;;;;5096119;28;20558;-72
2022/04/21 07:27:33;;;;;;;7.45;6.07;;;;;;;;;;5096685;28;20219;-72
2022/04/21 07:30:01;;;;;;;7.22;6.38;;;;;;;;;;5096559;28;20206;-73
2022/04/21 07:32:28;;;;;;;6.50;5.90;;;;;;;;;;5096657;28;20538;-73
2022/04/21 07:34:55;;;;;;;6.88;5.82;;;;;;;;;;5096066;28;20197;-72
2022/04/21 07:37:22;;;;;;;8.27;5.40;;;;;;;;;;5096921;28;20201;-72
2022/04/21 07:39:50;;;;;;;7.18;5.38;;;;;;;;;;5095999;28;20201;-72
2022/04/21 07:42:17;;;;;;;6.20;5.60;;;;;;;;;;5096568;28;20646;-73
2022/04/21 07:44:46;;;;;;;5.43;4.97;;;;;;;;;;5096227;28;20639;-73
2022/04/21 07:47:13;;;;;;;5.88;5.35;;;;;;;;;;5096300;28;20233;-74
2022/04/21 07:49:47;;;;;;;8.18;5.75;;;;;;;;;;5096437;28;20228;-73
2022/04/21 07:55:07;;;;;;;11.00;4.82;;;;;;;;;;5095945;28;20270;-72
2022/04/21 07:57:34;;;;;;;8.27;5.65;;;;;;;;;;5095772;28;20240;-72
2022/04/21 08:00:04;;;;;;;7.68;5.60;;;;;;;;;;5095904;28;20196;-72
2022/04/21 08:02:31;;;;;;;6.57;4.70;;;;;;;;;;5095634;28;20206;-72
2022/04/21 08:05:02;;;;;;;6.38;4.50;;;;;;;;;;5095547;28;20204;-72
2022/04/21 08:07:30;;;;;;;7.18;5.80;;;;;;;;;;5096092;28;20208;-73
2022/04/21 08:09:58;;;;;;;8.10;5.00;;;;;;;;;;5094852;28;20197;-71
2022/04/21 08:12:26;;;;;;;5.82;4.80;;;;;;;;;;5096167;28;20197;-72
2022/04/21 08:14:54;;;;;;;5.70;4.72;;;;;;;;;;5095683;28;20201;-72
2022/04/21 08:17:22;;;;;;;5.68;4.50;;;;;;;;;;5095727;28;20209;-73
2022/04/21 08:19:50;;;;;;;5.75;4.95;;;;;;;;;;5095163;28;20201;-72
2022/04/21 08:22:17;;;;;;;5.20;4.70;;;;;;;;;;5095410;28;20563;-72
2022/04/21 08:33:00;;;;;;;5.60;4.45;;;;;;;;;;5095218;28;20181;-73
2022/04/21 08:35:27;;;;;;;5.57;4.90;;;;;;;;;;5094777;28;20205;-73
2022/04/21 08:37:55;;;;;;;6.20;5.60;;;;;;;;;;5095226;28;20201;-73
2022/04/21 08:40:24;;;;;;;6.37;4.67;;;;;;;;;;5095107;28;20607;-73
2022/04/21 08:42:54;;;;;;;9.63;5.50;;;;;;;;;;5095487;28;20455;-73
2022/04/21 08:45:22;;;;;;;6.20;5.07;;;;;;;;;;5095103;28;20200;-73
2022/04/21 08:47:50;;;;;;;5.50;3.83;;;;;;;;;;5095468;28;20216;-73
2022/04/21 08:50:19;;;;;;;5.50;4.67;;;;;;;;;;5094848;28;20235;-73
2022/04/21 08:52:46;;;;;;;13.43;4.57;;;;;;;;;;5094924;28;20447;-74
2022/04/21 08:55:14;;;;;;;3.65;3.35;;;;;;;;;;5094458;28;20706;-73
2022/04/21 08:57:41;;;;;;;4.23;3.70;;;;;;;;;;5094674;28;20777;-73
2022/04/21 09:00:09;;;;;;;4.00;3.70;;;;;;;;;;5094474;28;20945;-73
2022/04/21 09:02:37;;;;;;;8.03;5.73;;;;;;;;;;5094524;28;20533;-73
2022/04/21 09:05:06;;;;;;;3.73;3.37;;;;;;;;;;5094340;28;20432;-73
2022/04/21 09:07:43;;;;;;;8.43;3.60;;;;;;;;;;5095039;28;20475;-73
2022/04/21 09:10:17;;;;;;;12.73;4.10;;;;;;;;;;5094348;28;20227;-73
2022/04/21 09:12:45;;;;;;;4.90;3.83;;;;;;;;;;5094971;28;20424;-73
2022/04/21 09:15:14;;;;;;;3.50;3.20;;;;;;;;;;5094113;28;20443;-72
2022/04/21 09:17:45;;;;;;;11.00;2.97;;;;;;;;;;5094284;28;20535;-73
2022/04/21 09:20:13;;;;;;;3.20;2.33;;;;;;;;;;5094072;28;20447;-72
2022/04/21 09:22:43;;;;;;;3.40;2.63;;;;;;;;;;5094664;28;20444;-73
2022/04/21 09:25:11;;;;;;;5.60;3.23;;;;;;;;;;5094079;28;20828;-72
2022/04/21 09:27:42;;;;;;;5.80;3.43;;;;;;;;;;5093947;28;20472;-73
2022/04/21 09:30:12;;;;;;;3.47;3.17;;;;;;;;;;5094257;28;20449;-73
2022/04/21 09:32:40;;;;;;;3.73;2.87;;;;;;;;;;5094043;28;20496;-72
2022/04/21 09:35:08;;;;;;;4.40;2.90;;;;;;;;;;5094226;28;20444;-73
2022/04/21 09:37:48;;;;;;;6.03;3.23;;;;;;;;;;5094163;28;20482;-73
2022/04/21 09:40:16;;;;;;;3.27;3.00;;;;;;;;;;5094183;28;20551;-73
2022/04/21 09:42:43;;;;;;;2.93;2.63;;;;;;;;;;5094128;28;20530;-72
2022/04/21 09:47:56;;;;;;;4.30;3.23;;;;;;;;;;5093414;28;20443;-73
2022/04/21 09:50:26;;;;;;;6.80;2.73;;;;;;;;;;5094020;28;20798;-73
2022/04/21 09:52:55;;;;;;;9.90;3.20;;;;;;;;;;5093965;28;20435;-73
2022/04/21 09:55:23;;;;;;;2.93;2.73;;;;;;;;;;5093688;28;20436;-73
2022/04/21 09:57:54;;;;;;;20.33;7.77;;;;;;;;;;5093549;28;20932;-73
2022/04/21 10:00:22;;;;;;;4.17;3.40;;;;;;;;;;5093890;28;20493;-73
2022/04/21 10:02:50;;;;;;;3.43;3.13;;;;;;;;;;5093852;28;20796;-73
2022/04/21 10:05:18;;;;;;;3.27;2.97;;;;;;;;;;5094195;28;20523;-73
2022/04/21 10:07:46;;;;;;;4.00;3.03;;;;;;;;;;5093660;28;20469;-73
2022/04/21 10:10:15;;;;;;;3.23;2.93;;;;;;;;;;5093480;28;20444;-73
2022/04/21 10:12:43;;;;;;;4.00;3.70;;;;;;;;;;5093800;28;20929;-73
2022/04/21 10:15:11;;;;;;;4.27;3.77;;;;;;;;;;5093483;28;20439;-73
2022/04/21 10:17:39;;;;;;;4.07;3.47;;;;;;;;;;5093508;28;20505;-73
2022/04/21 10:20:07;;;;;;;7.27;3.97;;;;;;;;;;5093654;28;20447;-73
2022/04/21 10:22:35;;;;;;;10.60;4.00;;;;;;;;;;5093191;28;20440;-73
2022/04/21 10:25:03;;;;;;;4.10;3.70;;;;;;;;;;5093274;28;20940;-73
2022/04/21 10:27:39;;;;;;;5.37;3.83;;;;;;;;;;5093320;28;20498;-73
2022/04/21 10:30:13;;;;;;;8.33;4.30;;;;;;;;;;5093250;28;20435;-72
2022/04/21 10:33:01;;;;;;;10.10;4.10;;;;;;;;;;5093428;28;20439;-71
2022/04/21 10:35:46;;;;;;;5.93;4.20;;;;;;;;;;5093495;28;20423;-73
2022/04/21 10:38:26;;;;;;;4.63;4.23;;;;;;;;;;5093571;28;20558;-74
2022/04/21 10:40:56;;;;;;;7.43;3.53;;;;;;;;;;5093344;28;20443;-72
2022/04/21 10:43:25;;;;;;;4.50;4.10;;;;;;;;;;5093269;28;20530;-72
2022/04/21 10:46:05;;;;;;;4.50;3.90;;;;;;;;;;5093010;28;20479;-72
2022/04/21 10:48:42;;;;;;;9.37;6.10;;;;;;;;;;5093202;28;20475;-73
2022/04/21 10:51:10;;;;;;;6.47;4.60;;;;;;;;;;5093434;28;20504;-73
2022/04/21 10:59:30;;;;;;;6.43;4.70;;;;;;;;;;5097194;28;20423;-72
2022/04/21 11:01:57;;;;;;;7.63;4.23;;;;;;;;;;5096835;28;20929;-72
2022/04/21 11:04:25;;;;;;;5.27;4.60;;;;;;;;;;5097304;28;20481;-72
2022/04/21 11:06:54;;;;;;;6.97;5.37;;;;;;;;;;5097319;28;20444;-72
2022/04/21 11:09:41;;;;;;;9.50;4.90;;;;;;;;;;5096862;28;20853;-72
2022/04/21 11:12:09;;;;;;;5.53;4.90;;;;;;;;;;5096598;28;20530;-72
2022/04/21 11:14:39;;;;;;;10.10;4.80;;;;;;;;;;5097145;28;20523;-73
2022/04/21 11:17:07;;;;;;;7.77;4.80;;;;;;;;;;5096698;28;20447;-72
2022/04/21 11:19:35;;;;;;;5.20;4.70;;;;;;;;;;5096506;28;20940;-73
2022/04/21 11:22:04;;;;;;;11.03;5.07;;;;;;;;;;5096269;28;20531;-72
2022/04/21 11:24:46;;;;;;;6.77;5.33;;;;;;;;;;5096681;28;20820;-73
2022/04/21 11:27:14;;;;;;;5.60;5.10;;;;;;;;;;5096569;28;20481;-73
2022/04/21 11:29:42;;;;;;;4.77;4.37;;;;;;;;;;5096728;28;20452;-73
2022/04/21 11:32:10;;;;;;;6.60;5.13;;;;;;;;;;5096490;28;20472;-73
2022/04/21 11:34:37;;;;;;;6.93;5.50;;;;;;;;;;5095898;28;20443;-67
2022/04/21 11:37:06;;;;;;;8.83;5.23;;;;;;;;;;5096024;28;20532;-70
2022/04/21 11:39:39;;;;;;;6.20;5.60;;;;;;;;;;5096497;28;20475;-71
2022/04/21 11:42:06;;;;;;;8.33;5.10;;;;;;;;;;5096493;28;20409;-72
2022/04/21 11:44:33;;;;;;;6.57;5.47;;;;;;;;;;5096741;28;20490;-71
2022/04/21 11:47:03;;;;;;;6.60;5.87;;;;;;;;;;5094701;28;20506;-69
2022/04/21 11:49:30;;;;;;;5.43;4.40;;;;;;;;;;5095730;28;20872;-71
2022/04/21 11:51:57;;;;;;;8.93;5.10;;;;;;;;;;5095702;28;20440;-71
2022/04/21 11:54:24;;;;;;;10.17;5.03;;;;;;;;;;5095491;28;20440;-71
2022/04/21 11:56:52;;;;;;;6.57;5.10;;;;;;;;;;5095233;28;20447;-71
2022/04/21 11:59:19;;;;;;;6.40;5.40;;;;;;;;;;5095845;28;20511;-71
2022/04/21 12:07:20;;;;;;;11.13;8.57;;;;;;;;;;5095744;28;20451;-71
2022/04/21 12:09:48;;;;;;;5.80;5.30;;;;;;;;;;5094644;28;20448;-71
2022/04/21 12:12:16;;;;;;;6.10;5.43;;;;;;;;;;5095441;28;20479;-70
2022/04/21 12:14:44;;;;;;;8.80;5.70;;;;;;;;;;5095328;28;20440;-71
2022/04/21 12:17:12;;;;;;;6.57;5.87;;;;;;;;;;5095819;28;20445;-71
2022/04/21 12:19:42;;;;;;;7.70;5.70;;;;;;;;;;5095284;28;20452;-71
2022/04/21 12:22:11;;;;;;;7.13;5.90;;;;;;;;;;5095475;28;20553;-71
2022/04/21 12:24:39;;;;;;;6.07;5.40;;;;;;;;;;5095045;28;20447;-71
2022/04/21 12:27:07;;;;;;;7.13;5.70;;;;;;;;;;5095326;28;20960;-71
2022/04/21 12:29:48;;;;;;;6.80;6.03;;;;;;;;;;5095318;28;20503;-71
2022/04/21 12:32:17;;;;;;;9.23;5.63;;;;;;;;;;5095566;28;20428;-71
2022/04/21 12:34:46;;;;;;;7.00;6.17;;;;;;;;;;5095336;28;20440;-71
2022/04/21 12:37:13;;;;;;;6.70;6.10;;;;;;;;;;5094896;28;20439;-71
2022/04/21 12:39:40;;;;;;;8.50;6.40;;;;;;;;;;5095252;28;20862;-72
2022/04/21 12:42:08;;;;;;;6.20;5.43;;;;;;;;;;5094603;28;20531;-71
2022/04/21 12:44:36;;;;;;;6.80;6.20;;;;;;;;;;5094496;28;20446;-71
2022/04/21 12:47:05;;;;;;;7.10;6.00;;;;;;;;;;5094344;28;20481;-71
2022/04/21 12:49:56;;;;;;;9.23;7.17;;;;;;;;;;5094548;28;20485;-71
2022/04/21 12:52:30;;;;;;;7.37;6.37;;;;;;;;;;5094621;28;20428;-71
2022/04/21 12:54:57;;;;;;;9.57;7.03;;;;;;;;;;5095033;28;20434;-71
2022/04/21 12:57:24;;;;;;;5.93;5.33;;;;;;;;;;5094569;28;20949;-71
2022/04/21 12:59:52;;;;;;;6.90;5.87;;;;;;;;;;5094921;28;20533;-71
2022/04/21 13:02:19;;;;;;;5.67;5.17;;;;;;;;;;5094470;28;20435;-71
2022/04/21 13:04:47;;;;;;;10.13;5.70;;;;;;;;;;5094504;28;20442;-71
2022/04/21 13:07:15;;;;;;;7.77;5.73;;;;;;;;;;5094447;28;20476;-71
2022/04/21 13:09:42;;;;;;;8.13;6.47;;;;;;;;;;5094173;28;20514;-71
2022/04/21 13:12:10;;;;;;;9.63;5.50;;;;;;;;;;5095203;28;20833;-71
2022/04/21 13:14:38;;;;;;;7.07;6.37;;;;;;;;;;5094163;28;20443;-71
2022/04/21 13:17:06;;;;;;;7.50;6.90;;;;;;;;;;5093928;28;20451;-71
2022/04/21 13:19:34;;;;;;;12.20;7.10;;;;;;;;;;5094434;28;20440;-71
2022/04/21 13:22:01;;;;;;;7.80;6.03;;;;;;;;;;5094007;28;20446;-71
2022/04/21 13:24:29;;;;;;;13.10;7.47;;;;;;;;;;5093996;28;20438;-71
2022/04/21 13:26:58;;;;;;;11.90;7.57;;;;;;;;;;5094381;28;20441;-72
2022/04/21 13:29:27;;;;;;;11.83;7.90;;;;;;;;;;5094129;28;20566;-71
2022/04/21 13:34:39;;;;;;;16.13;6.50;;;;;;;;;;5093998;28;20403;-71
2022/04/21 13:37:06;;;;;;;6.63;5.60;;;;;;;;;;5094088;28;20523;-71
2022/04/21 13:39:36;;;;;;;8.27;7.43;;;;;;;;;;5093930;28;20763;-71
2022/04/21 13:42:03;;;;;;;10.50;9.40;;;;;;;;;;5093313;28;20443;-71
2022/04/21 13:44:30;;;;;;;11.23;7.40;;;;;;;;;;5093785;28;20478;-71
2022/04/21 13:46:58;;;;;;;7.60;6.03;;;;;;;;;;5094080;28;20475;-71
2022/04/21 13:49:25;;;;;;;9.37;7.13;;;;;;;;;;5093452;28;20974;-71
2022/04/21 13:51:52;;;;;;;7.17;6.47;;;;;;;;;;5126980;27;20968;-71
2022/04/21 13:54:20;;;;;;;8.97;6.03;;;;;;;;;;5093880;28;20479;-72
2022/04/21 13:56:49;;;;;;;9.47;6.80;;;;;;;;;;5093555;28;20440;-71
2022/04/21 13:59:16;;;;;;;8.97;7.30;;;;;;;;;;5094174;28;20454;-71
2022/04/21 14:01:44;;;;;;;7.33;6.00;;;;;;;;;;5093881;28;20840;-71
2022/04/21 14:04:12;;;;;;;7.03;6.33;;;;;;;;;;5093048;28;20929;-71
2022/04/21 14:06:39;;;;;;;8.20;6.50;;;;;;;;;;5093666;28;20443;-71
2022/04/21 14:09:08;;;;;;;6.47;5.77;;;;;;;;;;5093155;28;20472;-72
2022/04/21 14:11:36;;;;;;;11.13;6.80;;;;;;;;;;5093673;28;20444;-70
2022/04/21 14:14:05;;;;;;;7.50;6.80;;;;;;;;;;5093822;28;20443;-70
2022/04/21 14:16:33;;;;;;;11.50;6.70;;;;;;;;;;5093611;28;20851;-71
2022/04/21 14:19:00;;;;;;;8.93;6.90;;;;;;;;;;5093515;28;20501;-71
2022/04/21 14:21:28;;;;;;;8.20;6.23;;;;;;;;;;5093083;28;20449;-71
2022/04/21 14:23:55;;;;;;;9.27;6.80;;;;;;;;;;5092920;28;20483;-71
2022/04/21 14:26:22;;;;;;;7.07;6.37;;;;;;;;;;5093412;28;20443;-71
2022/04/21 14:28:49;;;;;;;17.50;6.90;;;;;;;;;;5093276;28;20472;-71
2022/04/21 14:31:18;;;;;;;8.97;6.40;;;;;;;;;;5093487;28;20439;-71
2022/04/21 14:33:45;;;;;;;10.50;7.83;;;;;;;;;;5096691;28;20451;-72
2022/04/21 14:36:12;;;;;;;6.23;5.73;;;;;;;;;;5097101;28;20448;-72
2022/04/21 14:44:18;;;;;;;10.57;6.73;;;;;;;;;;5097008;28;20909;-71
2022/04/21 14:46:48;;;;;;;8.10;5.83;;;;;;;;;;5096899;28;20480;-71
2022/04/21 14:49:16;;;;;;;6.00;5.40;;;;;;;;;;5096782;28;20481;-71
2022/04/21 14:51:44;;;;;;;8.70;6.53;;;;;;;;;;5097165;28;20526;-71
2022/04/21 14:54:12;;;;;;;11.20;6.57;;;;;;;;;;5097408;28;20439;-71
2022/04/21 14:56:41;;;;;;;10.13;6.60;;;;;;;;;;5096697;28;20465;-71
2022/04/21 14:59:08;;;;;;;8.50;6.03;;;;;;;;;;5097158;28;20475;-71
2022/04/21 15:01:37;;;;;;;8.53;6.77;;;;;;;;;;5096876;28;20787;-71
2022/04/21 15:04:06;;;;;;;8.10;6.10;;;;;;;;;;5096368;28;20539;-72
2022/04/21 15:06:33;;;;;;;10.00;6.27;;;;;;;;;;5096359;28;20848;-72
2022/04/21 15:09:01;;;;;;;5.77;5.17;;;;;;;;;;5096492;28;20480;-71
2022/04/21 15:11:28;;;;;;;10.77;5.93;;;;;;;;;;5096560;28;21000;-72
2022/04/21 15:13:55;;;;;;;7.33;6.30;;;;;;;;;;5097127;28;20442;-72
2022/04/21 15:16:22;;;;;;;8.10;6.63;;;;;;;;;;5096991;28;20451;-72
2022/04/21 15:18:50;;;;;;;6.50;5.90;;;;;;;;;;5096794;28;20451;-72
2022/04/21 15:21:19;;;;;;;6.77;6.07;;;;;;;;;;5096653;28;20470;-72
2022/04/21 15:23:47;;;;;;;5.87;5.07;;;;;;;;;;5096335;28;20437;-72
2022/04/21 15:26:14;;;;;;;6.70;6.00;;;;;;;;;;5096589;28;20956;-72
2022/04/21 15:28:41;;;;;;;7.93;5.60;;;;;;;;;;5096020;28;20988;-72
2022/04/21 15:31:15;;;;;;;6.90;6.20;;;;;;;;;;5096319;28;20500;-72
2022/04/21 15:33:42;;;;;;;8.43;6.57;;;;;;;;;;5096560;28;20430;-72
2022/04/21 15:36:11;;;;;;;6.93;6.00;;;;;;;;;;5096296;28;20448;-71
2022/04/21 15:38:44;;;;;;;6.30;4.63;;;;;;;;;;5096048;28;20451;-71
2022/04/21 15:41:12;;;;;;;6.30;5.57;;;;;;;;;;5096030;28;20432;-71
2022/04/21 15:43:39;;;;;;;5.60;5.03;;;;;;;;;;5095217;28;20444;-71